Time;durP1;ratioP1;P1;durP2;ratioP2;P2;SDS_P1;SDS_P2;PMS_P1;PMS_P2;Temp;Humidity;BMP_temperature;BMP_pressure;BME280_temperature;BME280_humidity;BME280_pressure;Samples;Min_cycle;Max_cycle;Signal;HPM_P1;HPM_P2
2023/10/05 00:02:00;;;;;;;14.80;3.20;;;;;;;13.58;100.00;100937.41;5006218;28;20048;-77
2023/10/05 00:04:26;;;;;;;22.27;3.95;;;;;;;13.59;100.00;100928.38;4998713;28;20045;-78
2023/10/05 00:06:55;;;;;;;11.05;3.10;;;;;;;13.66;100.00;100937.38;4993901;28;20022;-78
2023/10/05 00:09:21;;;;;;;10.02;3.67;;;;;;;13.58;100.00;100942.78;4993332;28;20042;-78
2023/10/05 00:11:47;;;;;;;9.07;2.95;;;;;;;13.56;100.00;100932.25;5002019;28;20073;-78
2023/10/05 00:14:13;;;;;;;7.28;3.42;;;;;;;13.49;100.00;100912.53;4990971;28;20111;-77
2023/10/05 00:16:43;;;;;;;14.43;3.40;;;;;;;13.61;100.00;100907.56;4999260;28;20037;-78
2023/10/05 00:19:13;;;;;;;11.05;3.50;;;;;;;13.63;100.00;100892.13;5003485;28;20042;-78
2023/10/05 00:21:48;;;;;;;14.48;4.03;;;;;;;13.64;100.00;100888.44;4998280;28;20034;-78
2023/10/05 00:24:15;;;;;;;12.88;3.15;;;;;;;13.60;100.00;100873.69;5000945;28;20050;-77
2023/10/05 00:26:47;;;;;;;7.90;2.78;;;;;;;13.62;100.00;100909.22;5000134;28;20053;-78
2023/10/05 00:29:18;;;;;;;13.82;3.33;;;;;;;13.60;100.00;100893.34;5000064;28;20046;-78
2023/10/05 00:31:47;;;;;;;12.57;3.30;;;;;;;13.52;100.00;100878.09;4998613;28;20120;-77
2023/10/05 00:34:22;;;;;;;9.70;2.67;;;;;;;13.52;100.00;100888.84;4983542;28;20026;-78
2023/10/05 00:36:50;;;;;;;12.93;2.80;;;;;;;13.60;100.00;100869.19;4996598;28;20070;-78
2023/10/05 00:39:21;;;;;;;13.18;2.90;;;;;;;13.52;100.00;100871.91;4982935;28;20068;-79
2023/10/05 00:44:30;;;;;;;12.25;3.72;;;;;;;13.54;100.00;100869.91;4980883;28;20865;-77
2023/10/05 00:47:00;;;;;;;13.25;3.17;;;;;;;13.57;100.00;100844.56;5001401;28;20469;-78
2023/10/05 00:49:29;;;;;;;8.00;3.17;;;;;;;13.63;100.00;100862.63;4999969;28;20049;-79
2023/10/05 00:54:30;;;;;;;10.98;3.13;;;;;;;13.74;100.00;100870.22;4981093;28;20069;-78
2023/10/05 00:57:03;;;;;;;14.10;3.35;;;;;;;13.52;100.00;100886.16;4996173;28;20041;-78
2023/10/05 00:59:32;;;;;;;8.55;3.33;;;;;;;13.48;100.00;100962.63;4999212;28;20481;-77
2023/10/05 01:04:28;;;;;;;;;;;;;;;13.20;100.00;101023.06;4999243;28;20133;-78
2023/10/05 01:06:55;;;;;;;16.65;3.60;;;;;;;13.12;100.00;101041.88;4976108;28;19925;-77
2023/10/05 01:11:54;;;;;;;11.32;3.55;;;;;;;13.09;100.00;101067.16;4992469;28;20031;-79
2023/10/05 01:14:27;;;;;;;14.23;3.67;;;;;;;13.14;100.00;101070.16;4999845;28;20084;-78
2023/10/05 01:16:54;;;;;;;12.13;4.10;;;;;;;13.05;100.00;101047.91;4978315;28;20579;-77
2023/10/05 01:19:19;;;;;;;18.35;3.90;;;;;;;13.11;100.00;101030.31;4978358;28;20027;-78
2023/10/05 01:21:44;;;;;;;12.60;2.83;;;;;;;13.10;100.00;101012.53;4981615;28;20046;-78
2023/10/05 01:24:10;;;;;;;19.37;3.77;;;;;;;13.15;100.00;100993.25;4982413;28;20101;-78
2023/10/05 01:26:37;;;;;;;17.42;5.85;;;;;;;13.19;100.00;100979.34;4999842;28;20108;-77
2023/10/05 01:29:03;;;;;;;17.13;4.47;;;;;;;13.27;100.00;100992.75;4983209;28;20157;-77
2023/10/05 01:31:29;;;;;;;12.80;3.70;;;;;;;13.22;100.00;100973.63;5006965;28;20072;-78
2023/10/05 01:33:55;;;;;;;18.15;3.97;;;;;;;13.25;100.00;101005.47;5010469;28;20053;-77
2023/10/05 01:36:22;;;;;;;11.68;4.28;;;;;;;13.26;100.00;101000.94;5009990;28;20037;-77
2023/10/05 01:38:48;;;;;;;14.00;3.83;;;;;;;13.19;100.00;100986.53;5001425;28;20834;-77
2023/10/05 01:41:20;;;;;;;10.88;3.10;;;;;;;13.20;100.00;100997.06;5005630;28;20069;-77
2023/10/05 01:43:46;;;;;;;9.52;3.00;;;;;;;13.24;100.00;101005.63;5001685;28;20046;-79
2023/10/05 01:46:11;;;;;;;8.68;3.30;;;;;;;13.15;100.00;100994.09;4989272;28;20022;-78
2023/10/05 01:48:37;;;;;;;10.07;3.60;;;;;;;13.16;100.00;100982.38;5010589;28;20552;-77
2023/10/05 01:51:23;;;;;;;10.77;3.67;;;;;;;13.31;100.00;100985.19;5010174;28;20500;-76
2023/10/05 01:53:52;;;;;;;;;;;;;;;13.24;100.00;100968.91;5002042;28;20041;-78
2023/10/05 01:56:20;;;;;;;14.20;3.40;;;;;;;13.21;100.00;100950.50;5009325;28;19944;-76
2023/10/05 01:58:54;;;;;;;16.52;3.42;;;;;;;13.31;100.00;100958.38;5001143;28;20030;-78
2023/10/05 02:01:21;;;;;;;12.10;3.83;;;;;;;13.43;100.00;100946.22;5002338;28;20034;-79
2023/10/05 02:03:50;;;;;;;10.93;2.42;;;;;;;13.39;100.00;100923.47;5010550;28;20026;-78
2023/10/05 02:06:16;;;;;;;11.70;3.47;;;;;;;13.51;100.00;100913.19;5009784;28;20041;-78
2023/10/05 02:08:42;;;;;;;14.53;4.57;;;;;;;13.44;100.00;100885.41;5010391;28;20400;-77
2023/10/05 02:11:17;;;;;;;15.52;3.20;;;;;;;13.36;100.00;100880.06;5005623;28;20257;-78
2023/10/05 02:13:43;;;;;;;11.27;4.97;;;;;;;13.44;100.00;100886.22;5001228;28;20277;-78
2023/10/05 02:16:15;;;;;;;7.25;3.10;;;;;;;13.57;100.00;100900.88;5010349;28;20038;-77
2023/10/05 02:18:41;;;;;;;18.23;3.92;;;;;;;13.56;100.00;100867.03;5000908;28;20105;-78
2023/10/05 02:21:17;;;;;;;9.80;3.93;;;;;;;13.54;100.00;100837.72;5008964;28;20481;-78
2023/10/05 02:23:44;;;;;;;11.80;3.50;;;;;;;13.49;100.00;100824.84;4985912;28;20289;-78
2023/10/05 02:28:57;;;;;;;8.80;3.25;;;;;;;13.63;100.00;100814.34;5011253;28;20061;-79
2023/10/05 02:31:23;;;;;;;12.80;3.92;;;;;;;13.60;100.00;100803.94;5001719;28;20505;-76
2023/10/05 02:33:51;;;;;;;12.57;4.00;;;;;;;13.53;100.00;100785.06;5004407;28;20048;-77
2023/10/05 02:36:21;;;;;;;13.02;3.92;;;;;;;13.55;100.00;100785.72;5004284;28;20672;-77
2023/10/05 02:38:53;;;;;;;14.63;3.55;;;;;;;13.58;100.00;100796.09;5009694;28;20412;-78
2023/10/05 02:41:24;;;;;;;17.00;3.55;;;;;;;13.66;100.00;100808.59;5006234;28;20046;-79
2023/10/05 02:43:52;;;;;;;12.73;4.43;;;;;;;13.50;100.00;100790.78;4997471;28;20030;-78
2023/10/05 02:46:20;;;;;;;12.90;3.45;;;;;;;13.66;100.00;100824.69;4981129;28;20490;-77
2023/10/05 02:48:47;;;;;;;11.55;3.80;;;;;;;13.71;100.00;100827.66;5008759;28;20287;-79
2023/10/05 02:51:15;;;;;;;14.30;4.07;;;;;;;13.74;100.00;100827.31;5008532;28;20040;-78
2023/10/05 02:53:41;;;;;;;10.60;2.90;;;;;;;13.72;100.00;100814.09;5000338;28;20022;-78
2023/10/05 02:56:20;;;;;;;12.63;4.25;;;;;;;13.76;100.00;100822.59;5008148;28;20040;-78
2023/10/05 02:58:48;;;;;;;14.77;3.55;;;;;;;13.72;100.00;100819.44;4999723;28;20044;-79
2023/10/05 03:01:15;;;;;;;6.85;3.30;;;;;;;13.67;100.00;100840.63;5004172;28;20034;-78
2023/10/05 03:03:43;;;;;;;20.42;4.93;;;;;;;13.73;100.00;100828.31;5000013;28;20107;-79
2023/10/05 03:06:10;;;;;;;14.30;5.63;;;;;;;13.64;100.00;100832.09;5007605;28;20021;-77
2023/10/05 03:08:36;;;;;;;12.68;3.78;;;;;;;13.66;100.00;100824.69;5003499;28;20065;-79
2023/10/05 03:11:04;;;;;;;12.85;4.07;;;;;;;13.66;100.00;100833.56;5007884;28;20026;-78
2023/10/05 03:13:30;;;;;;;11.65;2.80;;;;;;;13.72;100.00;100840.91;4999764;28;20030;-78
2023/10/05 03:15:55;;;;;;;12.93;3.10;;;;;;;13.65;100.00;100837.28;5007737;28;20443;-78
2023/10/05 03:18:25;;;;;;;14.85;3.63;;;;;;;13.52;100.00;100811.06;5004437;28;20117;-78
2023/10/05 03:20:50;;;;;;;16.95;4.15;;;;;;;13.64;100.00;100854.38;5000316;28;20034;-79
2023/10/05 03:23:15;;;;;;;20.70;3.27;;;;;;;13.59;100.00;100856.78;5005245;28;20077;-78
2023/10/05 03:25:41;;;;;;;10.77;2.63;;;;;;;13.68;100.00;100854.88;4997999;28;20543;-78
2023/10/05 03:28:07;;;;;;;14.57;3.60;;;;;;;13.64;100.00;100862.44;5006953;28;20072;-78
2023/10/05 03:30:35;;;;;;;11.70;3.93;;;;;;;13.66;100.00;100881.88;4995320;28;20035;-78
2023/10/05 03:33:05;;;;;;;15.18;3.50;;;;;;;13.78;100.00;100879.59;5007762;28;20057;-78
2023/10/05 03:35:33;;;;;;;7.85;2.78;;;;;;;13.76;100.00;100862.00;5005405;28;20401;-77
2023/10/05 03:38:00;;;;;;;16.35;3.75;;;;;;;13.82;100.00;100863.97;5003053;28;20030;-78
2023/10/05 03:40:35;;;;;;;15.70;2.70;;;;;;;13.89;100.00;100879.16;5008256;28;20034;-79
2023/10/05 03:43:01;;;;;;;12.10;3.33;;;;;;;13.61;100.00;100910.25;4998728;28;20092;-78
2023/10/05 03:45:31;;;;;;;11.65;3.03;;;;;;;13.65;100.00;100968.75;5006941;28;20029;-78
2023/10/05 03:47:57;;;;;;;13.20;3.38;;;;;;;13.54;100.00;101006.69;5005480;28;20040;-78
2023/10/05 03:50:23;;;;;;;28.48;4.00;;;;;;;13.41;100.00;100996.50;4993975;28;20061;-78
2023/10/05 03:52:50;;;;;;;13.70;3.00;;;;;;;13.29;100.00;100995.25;4997338;28;20034;-78
2023/10/05 03:55:18;;;;;;;16.03;4.90;;;;;;;13.18;100.00;101022.38;5008015;28;20046;-79
2023/10/05 03:57:45;;;;;;;16.00;4.18;;;;;;;13.21;100.00;101036.31;4998328;28;20030;-78
2023/10/05 04:02:44;;;;;;;19.17;4.43;;;;;;;13.11;100.00;101059.78;4994360;28;20330;-79
2023/10/05 04:05:11;;;;;;;20.00;4.80;;;;;;;13.04;100.00;101030.16;5007611;28;20026;-78
2023/10/05 04:07:37;;;;;;;12.18;4.72;;;;;;;13.00;100.00;101069.03;4993777;28;20038;-79
2023/10/05 04:10:03;;;;;;;;;;;;;;;13.13;100.00;101107.84;5004212;28;20042;-78
2023/10/05 04:12:32;;;;;;;18.48;5.75;;;;;;;13.05;100.00;101132.84;5002482;28;19993;-79
2023/10/05 04:15:01;;;;;;;16.92;5.95;;;;;;;12.88;100.00;101126.66;5001284;28;20041;-78
2023/10/05 04:17:27;;;;;;;16.80;5.55;;;;;;;12.94;100.00;101136.69;4998911;28;20030;-79
2023/10/05 04:19:53;;;;;;;12.93;4.97;;;;;;;12.84;100.00;101136.88;4994093;28;20041;-78
2023/10/05 04:22:18;;;;;;;14.43;4.60;;;;;;;13.07;100.00;101137.03;5000672;28;20038;-82
2023/10/05 04:24:45;;;;;;;19.43;5.67;;;;;;;13.06;100.00;101124.63;5008555;28;20037;-81
2023/10/05 04:27:12;;;;;;;15.45;5.28;;;;;;;12.88;100.00;101110.59;4986106;28;20041;-82
2023/10/05 04:29:37;;;;;;;;;;;;;;;12.95;100.00;101122.31;5006035;28;20022;-82
2023/10/05 04:32:03;;;;;;;;;;;;;;;12.91;100.00;101112.91;5008215;28;19981;-81
2023/10/05 04:34:30;;;;;;;;;;;;;;;12.85;100.00;101108.22;4995622;28;19924;-81
2023/10/05 04:36:58;;;;;;;12.27;3.15;;;;;;;12.86;100.00;101117.94;5007348;28;19976;-81
2023/10/05 04:39:30;;;;;;;8.35;2.60;;;;;;;12.89;100.00;101101.53;4993309;28;20527;-81
2023/10/05 04:42:10;;;;;;;13.35;3.60;;;;;;;12.89;100.00;101106.88;5000622;28;20061;-82
2023/10/05 04:44:37;;;;;;;5.53;1.90;;;;;;;12.89;100.00;101106.88;4982244;28;20037;-81
2023/10/05 04:47:04;;;;;;;5.30;2.25;;;;;;;12.75;100.00;101092.31;5006924;28;20049;-80
2023/10/05 04:49:30;;;;;;;7.88;2.03;;;;;;;12.68;100.00;101097.50;5007550;28;20092;-82
2023/10/05 04:51:57;;;;;;;6.28;1.85;;;;;;;12.83;100.00;101097.69;5008041;28;20405;-81
2023/10/05 04:54:25;;;;;;;4.68;1.85;;;;;;;12.79;100.00;101096.34;4993515;28;20564;-81
2023/10/05 04:57:03;;;;;;;8.38;2.35;;;;;;;12.80;100.00;101094.50;4993549;28;20045;-81
2023/10/05 04:59:48;;;;;;;6.03;1.42;;;;;;;12.81;100.00;101094.34;5009710;28;20038;-81
2023/10/05 05:02:21;;;;;;;6.65;2.00;;;;;;;12.91;100.00;101096.00;5006432;28;20141;-81
2023/10/05 05:07:12;;;;;;;5.80;1.88;;;;;;;12.75;100.00;101104.88;5006696;28;20094;-82
2023/10/05 05:09:40;;;;;;;8.43;1.63;;;;;;;12.76;100.00;101101.19;5007567;28;20576;-80
2023/10/05 05:12:08;;;;;;;9.15;2.03;;;;;;;12.75;100.00;101097.69;5006945;28;20033;-81
2023/10/05 05:14:41;;;;;;;12.25;1.80;;;;;;;12.77;100.00;101108.25;4982461;28;20072;-81
2023/10/05 05:17:10;;;;;;;9.18;1.83;;;;;;;12.73;100.00;101102.38;5005270;28;20065;-81
2023/10/05 05:19:37;;;;;;;11.20;1.80;;;;;;;12.62;100.00;101095.53;5005162;28;20030;-81
2023/10/05 05:22:05;;;;;;;8.45;1.85;;;;;;;12.87;100.00;101111.56;5003670;28;20133;-80
2023/10/05 05:24:31;;;;;;;6.35;1.92;;;;;;;12.93;100.00;101105.56;5001266;28;20045;-80
2023/10/05 05:29:40;;;;;;;7.95;2.28;;;;;;;12.94;100.00;101101.84;5000338;28;20034;-80
2023/10/05 05:32:15;;;;;;;8.87;2.47;;;;;;;13.00;100.00;101113.75;5005927;28;20030;-80
2023/10/05 05:34:41;;;;;;;8.23;2.40;;;;;;;13.07;100.00;101122.78;4990127;28;20033;-81
2023/10/05 05:37:28;;;;;;;;;;;;;;;12.95;100.00;101116.13;5007187;28;20504;-81
2023/10/05 05:39:54;;;;;;;16.08;3.03;;;;;;;12.98;100.00;101116.59;5007065;28;19932;-82
2023/10/05 05:42:21;;;;;;;11.18;3.53;;;;;;;13.07;100.00;101123.63;5003692;28;20034;-81
2023/10/05 05:44:47;;;;;;;11.05;3.20;;;;;;;13.08;100.00;101133.31;5008132;28;20084;-80
2023/10/05 05:47:14;;;;;;;10.50;2.83;;;;;;;13.14;100.00;101137.19;5009747;28;20117;-81
2023/10/05 05:49:45;;;;;;;2.95;1.48;;;;;;;12.80;100.00;101126.66;5008177;28;20026;-80
2023/10/05 05:52:12;;;;;;;5.07;1.27;;;;;;;12.71;100.00;101116.94;5008195;28;20056;-80
2023/10/05 05:54:38;;;;;;;5.55;1.00;;;;;;;12.70;100.00;101102.72;5009060;28;20030;-80
2023/10/05 05:57:07;;;;;;;3.35;1.17;;;;;;;12.45;100.00;101101.84;5009700;28;20496;-80
2023/10/05 05:59:41;;;;;;;5.55;0.80;;;;;;;12.47;100.00;101097.19;5003463;28;20140;-80
2023/10/05 06:02:10;;;;;;;5.57;1.60;;;;;;;12.54;100.00;101124.97;5000610;28;20444;-81
2023/10/05 06:04:40;;;;;;;5.85;0.82;;;;;;;12.43;100.00;101110.06;4989893;28;20389;-80
2023/10/05 06:07:13;;;;;;;4.10;1.45;;;;;;;12.52;100.00;101126.97;5007795;28;20088;-81
2023/10/05 06:09:45;;;;;;;4.97;1.20;;;;;;;12.50;100.00;101134.31;5009270;28;20501;-79
2023/10/05 06:12:11;;;;;;;3.45;0.95;;;;;;;12.49;100.00;101143.38;5010602;28;20038;-80
2023/10/05 06:14:43;;;;;;;5.85;1.73;;;;;;;12.46;100.00;101135.69;4995618;28;20021;-80
2023/10/05 06:17:09;;;;;;;11.38;1.40;;;;;;;12.59;100.00;101144.03;5012686;28;20029;-80
2023/10/05 06:19:36;;;;;;;3.05;0.90;;;;;;;12.71;100.00;101149.91;5007489;28;20097;-82
2023/10/05 06:22:03;;;;;;;2.08;1.20;;;;;;;12.87;100.00;101154.44;5007128;28;20081;-82
2023/10/05 06:24:29;;;;;;;4.57;1.50;;;;;;;12.80;100.00;101150.75;4996184;28;20018;-82
2023/10/05 06:26:54;;;;;;;4.80;1.17;;;;;;;12.95;100.00;101162.50;5007916;28;20084;-82
2023/10/05 06:29:19;;;;;;;7.33;1.80;;;;;;;12.95;100.00;101173.22;5005059;28;20648;-81
2023/10/05 06:31:45;;;;;;;4.07;1.30;;;;;;;13.04;100.00;101177.56;5007583;28;20375;-81
2023/10/05 06:34:11;;;;;;;11.97;1.80;;;;;;;12.87;100.00;101171.34;5006233;28;20083;-81
2023/10/05 06:36:41;;;;;;;5.90;1.20;;;;;;;12.97;100.00;101179.25;5007555;28;20496;-82
2023/10/05 06:39:06;;;;;;;8.10;1.85;;;;;;;12.89;100.00;101177.38;5005431;28;20041;-82
2023/10/05 06:41:34;;;;;;;23.73;1.80;;;;;;;12.92;100.00;101186.94;5004292;28;20517;-82
2023/10/05 06:44:01;;;;;;;8.13;1.75;;;;;;;13.09;100.00;101202.03;5006418;28;20240;-81
2023/10/05 06:46:27;;;;;;;4.53;1.30;;;;;;;13.17;100.00;101195.00;5004645;28;20022;-81
2023/10/05 06:48:53;;;;;;;9.73;2.00;;;;;;;13.25;100.00;101193.16;5002129;28;20778;-81
2023/10/05 06:51:25;;;;;;;6.43;1.75;;;;;;;13.39;100.00;101199.69;5010900;28;20022;-81
2023/10/05 06:53:51;;;;;;;9.60;1.33;;;;;;;13.62;100.00;101209.69;5006666;28;20485;-81
2023/10/05 06:56:18;;;;;;;20.67;2.50;;;;;;;13.53;100.00;101190.09;5004291;28;20081;-81
2023/10/05 06:58:43;;;;;;;5.43;1.35;;;;;;;13.50;100.00;101193.97;4993225;28;20456;-81
2023/10/05 07:01:09;;;;;;;5.07;1.40;;;;;;;13.46;100.00;101192.66;5004106;28;20072;-81
2023/10/05 07:03:36;;;;;;;7.03;1.48;;;;;;;13.49;100.00;101200.34;4993597;28;20312;-80
2023/10/05 07:06:04;;;;;;;11.02;1.55;;;;;;;13.43;100.00;101190.28;5001678;28;20042;-80
2023/10/05 07:08:33;;;;;;;8.57;1.05;;;;;;;13.67;100.00;101204.66;5001906;28;20034;-81
2023/10/05 07:10:59;;;;;;;7.72;1.45;;;;;;;13.74;100.00;101192.22;4984715;28;20018;-80
2023/10/05 07:13:24;;;;;;;5.38;1.65;;;;;;;13.85;100.00;101191.84;4989576;28;20125;-80
2023/10/05 07:15:50;;;;;;;5.30;1.63;;;;;;;13.91;100.00;101199.22;5005119;28;20034;-80
2023/10/05 07:18:18;;;;;;;8.07;2.13;;;;;;;14.55;100.00;101209.84;5002263;28;20092;-80
2023/10/05 07:20:44;;;;;;;4.90;0.95;;;;;;;14.85;100.00;101212.69;5005096;28;20056;-80
2023/10/05 07:23:09;;;;;;;8.05;1.33;;;;;;;15.27;100.00;101211.34;5000837;28;20476;-80
2023/10/05 07:25:36;;;;;;;6.53;1.57;;;;;;;15.01;100.00;101194.75;4993391;28;20098;-80
2023/10/05 07:28:03;;;;;;;;;;;;;;;15.20;100.00;101197.78;5006584;28;20040;-80
2023/10/05 07:30:29;;;;;;;4.00;1.23;;;;;;;15.12;100.00;101181.69;5008879;28;19913;-80
2023/10/05 07:32:54;;;;;;;8.57;1.88;;;;;;;14.74;100.00;101178.16;4979541;28;20321;-81
2023/10/05 07:35:20;;;;;;;4.53;1.17;;;;;;;14.69;100.00;101181.38;4992767;28;20038;-80
2023/10/05 07:37:47;;;;;;;8.25;1.65;;;;;;;14.46;100.00;101156.31;5003787;28;20034;-79
2023/10/05 07:40:13;;;;;;;12.00;1.95;;;;;;;14.65;100.00;101173.84;5004637;28;20038;-79
2023/10/05 07:42:39;;;;;;;4.53;1.73;;;;;;;15.88;100.00;101205.03;5008156;28;20026;-79
2023/10/05 07:45:13;;;;;;;7.25;1.23;;;;;;;16.57;100.00;101177.66;5008485;28;20025;-79
2023/10/05 07:47:42;;;;;;;4.90;1.50;;;;;;;17.12;100.00;101130.28;5003512;28;20397;-80
2023/10/05 07:50:10;;;;;;;5.22;1.20;;;;;;;17.43;100.00;101058.84;5006054;28;20029;-79
2023/10/05 07:52:37;;;;;;;6.32;1.30;;;;;;;17.37;100.00;100997.56;5009189;28;20092;-80
2023/10/05 07:55:07;;;;;;;6.32;1.50;;;;;;;17.24;100.00;100977.59;5005505;28;20065;-79
2023/10/05 07:57:32;;;;;;;4.55;0.90;;;;;;;17.54;100.00;100938.69;5005809;28;20022;-79
2023/10/05 07:59:57;;;;;;;10.80;1.80;;;;;;;18.02;100.00;100885.38;5007791;28;20037;-79
2023/10/05 08:02:23;;;;;;;7.20;1.37;;;;;;;18.72;100.00;100793.72;5006388;28;20090;-79
2023/10/05 08:04:48;;;;;;;8.07;1.20;;;;;;;19.20;100.00;100722.13;5007444;28;20037;-79
2023/10/05 08:07:15;;;;;;;7.67;1.70;;;;;;;18.88;100.00;100581.47;5006857;28;20079;-79
2023/10/05 08:09:42;;;;;;;5.97;1.02;;;;;;;18.92;100.00;100525.88;5005498;28;20092;-79
2023/10/05 08:12:11;;;;;;;4.07;1.13;;;;;;;19.63;100.00;100493.03;5006777;28;20030;-79
2023/10/05 08:14:37;;;;;;;8.38;1.70;;;;;;;20.09;100.00;100389.44;5005429;28;20022;-80
2023/10/05 08:17:03;;;;;;;5.32;1.30;;;;;;;20.15;100.00;100421.00;5005224;28;20376;-80
2023/10/05 08:19:29;;;;;;;8.15;1.30;;;;;;;20.36;100.00;100303.03;5011153;28;20053;-80
2023/10/05 08:21:55;;;;;;;10.07;1.45;;;;;;;20.44;100.00;100234.09;5010138;28;20111;-79
2023/10/05 08:24:23;;;;;;;6.63;1.25;;;;;;;20.71;100.00;100293.22;5000414;28;20041;-79
2023/10/05 08:26:52;;;;;;;6.13;1.33;;;;;;;19.99;100.00;100080.31;4997304;28;20034;-79
2023/10/05 08:29:22;;;;;;;7.07;2.42;;;;;;;20.32;100.00;100051.66;4986762;28;20096;-79
2023/10/05 08:31:50;;;;;;;4.75;1.33;;;;;;;19.53;100.00;100060.38;4990848;28;20444;-79
2023/10/05 08:34:20;;;;;;;10.00;1.98;;;;;;;19.84;100.00;100028.56;5004617;28;20029;-79
2023/10/05 08:36:54;;;;;;;12.88;2.15;;;;;;;19.96;100.00;100233.31;5001557;28;20050;-79
2023/10/05 08:39:26;;;;;;;9.35;1.23;;;;;;;21.01;100.00;100234.09;5007595;28;20362;-79
2023/10/05 08:42:02;;;;;;;4.47;1.17;;;;;;;20.53;100.00;100124.16;5007189;28;20030;-79
2023/10/05 08:44:27;;;;;;;6.20;1.30;;;;;;;21.08;100.00;100104.50;5005044;28;20565;-78
2023/10/05 08:46:55;;;;;;;5.47;1.20;;;;;;;19.11;100.00;99766.47;5007316;28;20067;-80
2023/10/05 08:49:26;;;;;;;10.55;2.13;;;;;;;20.00;100.00;100252.66;5005588;28;20403;-79
2023/10/05 08:51:52;;;;;;;6.43;1.20;;;;;;;18.96;100.00;100115.94;5007270;28;20021;-79
2023/10/05 08:54:21;;;;;;;8.02;2.10;;;;;;;19.78;100.00;100464.50;5002815;28;20413;-79
2023/10/05 08:56:48;;;;;;;6.68;1.65;;;;;;;21.01;100.00;100405.06;5007408;28;20374;-79
2023/10/05 08:59:16;;;;;;;5.82;1.40;;;;;;;21.19;100.00;99939.09;5004949;28;20029;-80
2023/10/05 09:01:43;;;;;;;8.70;1.60;;;;;;;20.56;100.00;100028.00;5004521;28;20018;-79
2023/10/05 09:06:57;;;;;;;15.45;2.88;;;;;;;19.82;100.00;100295.03;5003908;28;20121;-79
2023/10/05 09:09:51;;;;;;;5.97;1.42;;;;;;;20.23;100.00;100146.09;5003804;28;20367;-79
2023/10/05 09:12:38;;;;;;;8.80;1.98;;;;;;;18.36;100.00;100078.13;4994530;28;20399;-79
2023/10/05 09:17:57;;;;;;;8.68;2.05;;;;;;;20.41;100.00;100432.47;5005315;28;20101;-79
2023/10/05 09:20:31;;;;;;;7.40;2.13;;;;;;;20.29;100.00;100157.84;5005801;28;20045;-79
2023/10/05 09:23:00;;;;;;;9.25;2.13;;;;;;;19.31;100.00;99966.25;5001671;28;20053;-79
2023/10/05 09:25:31;;;;;;;14.43;2.00;;;;;;;20.79;100.00;100352.50;5002926;28;20052;-79
2023/10/05 09:28:07;;;;;;;5.60;1.42;;;;;;;20.66;100.00;99969.28;5002016;28;20384;-79
2023/10/05 09:30:32;;;;;;;10.70;2.30;;;;;;;19.55;100.00;100083.47;5004007;28;20078;-79
2023/10/05 09:33:08;;;;;;;8.02;1.77;;;;;;;20.00;100.00;100412.50;5006369;28;20841;-79
2023/10/05 09:35:33;;;;;;;7.65;1.77;;;;;;;19.20;100.00;100040.19;5004951;28;20094;-79
2023/10/05 09:38:07;;;;;;;5.80;1.27;;;;;;;20.05;100.00;100293.41;5006412;28;20030;-79
2023/10/05 09:40:33;;;;;;;10.70;1.77;;;;;;;18.25;100.00;100141.06;5006107;28;20489;-80
2023/10/05 09:43:00;;;;;;;11.60;2.30;;;;;;;18.83;100.00;100251.34;5004785;28;20030;-78
2023/10/05 09:45:30;;;;;;;7.20;1.52;;;;;;;18.43;100.00;99935.63;5002413;28;20038;-79
2023/10/05 09:48:00;;;;;;;10.13;2.08;;;;;;;18.79;100.00;100214.19;5006533;28;20200;-79
2023/10/05 09:50:27;;;;;;;11.95;2.47;;;;;;;19.13;100.00;100126.06;5011226;28;20397;-78
2023/10/05 09:52:52;;;;;;;;;;;;;;;19.24;100.00;100010.75;4987137;28;20282;-76
2023/10/05 09:55:19;;;;;;;11.32;1.98;;;;;;;20.11;100.00;99988.97;5004105;28;19953;-76
2023/10/05 09:57:51;;;;;;;6.50;1.50;;;;;;;20.08;100.00;99997.56;5004231;28;20530;-76
2023/10/05 10:03:00;;;;;;;7.93;2.58;;;;;;;20.58;100.00;99876.69;5004073;28;20058;-79
2023/10/05 10:05:30;;;;;;;8.65;2.28;;;;;;;20.84;100.00;99780.22;5005867;28;20034;-79
2023/10/05 10:08:12;;;;;;;7.90;2.00;;;;;;;21.07;97.70;99600.00;4998152;28;20406;-79
2023/10/05 10:10:43;;;;;;;14.23;1.77;;;;;;;20.80;94.62;99402.06;5000429;28;20034;-79
2023/10/05 10:13:14;;;;;;;8.90;2.58;;;;;;;21.33;95.87;99671.63;5005687;28;20038;-79
2023/10/05 10:15:40;;;;;;;12.50;3.42;;;;;;;21.65;95.26;99697.94;5007824;28;20038;-79
2023/10/05 10:18:36;;;;;;;10.75;1.55;;;;;;;21.73;93.70;99550.78;5007729;28;20033;-79
2023/10/05 10:20:57;;;;;;;9.32;2.40;;;;;;;22.13;91.31;99568.31;5002844;28;20060;-79
2023/10/05 10:23:27;;;;;;;8.00;2.25;;;;;;;21.37;96.33;99808.44;5003346;28;20436;-79
2023/10/05 10:26:05;;;;;;;14.27;2.95;;;;;;;21.38;93.74;99635.53;5003324;28;20029;-79
2023/10/05 10:29:15;;;;;;;9.23;2.20;;;;;;;21.47;90.04;99379.59;5011427;28;20037;-79
2023/10/05 10:31:38;;;;;;;9.68;2.35;;;;;;;21.35;84.50;98911.28;5013424;28;20065;-78
2023/10/05 10:34:49;;;;;;;8.05;2.03;;;;;;;22.37;86.68;99502.59;5004336;28;20093;-79
2023/10/05 10:37:34;;;;;;;9.02;2.22;;;;;;;21.44;86.68;99317.66;5021608;28;20038;-79
2023/10/05 10:40:00;;;;;;;6.65;2.15;;;;;;;20.30;91.19;99454.81;5013937;28;20038;-79
2023/10/05 10:42:50;;;;;;;8.00;1.77;;;;;;;19.60;92.97;99487.13;5013263;28;20120;-79
2023/10/05 10:45:32;;;;;;;9.77;2.55;;;;;;;19.07;92.05;99277.63;5007297;28;20030;-79
2023/10/05 10:47:59;;;;;;;13.13;2.30;;;;;;;18.50;99.24;99679.59;5001959;28;20404;-79
2023/10/05 10:50:37;;;;;;;8.93;1.98;;;;;;;18.55;100.00;99820.22;5006648;28;20025;-79
2023/10/05 10:53:25;;;;;;;8.93;1.95;;;;;;;18.28;100.00;99838.78;4999244;28;20148;-79
2023/10/05 10:56:03;;;;;;;9.18;2.95;;;;;;;18.05;100.00;99715.41;4995766;28;20030;-78
2023/10/05 10:58:31;;;;;;;10.15;2.15;;;;;;;18.42;100.00;100223.13;4996754;28;20561;-79
2023/10/05 11:01:13;;;;;;;10.45;2.38;;;;;;;17.95;100.00;100217.44;5000728;28;20129;-79
2023/10/05 11:03:41;;;;;;;15.93;3.13;;;;;;;17.28;100.00;99886.22;5000595;28;20038;-78
2023/10/05 11:06:09;;;;;;;6.28;1.75;;;;;;;17.29;100.00;100370.75;5002757;28;20485;-79
2023/10/05 11:08:40;;;;;;;9.02;2.28;;;;;;;17.43;100.00;100629.75;5003399;28;20405;-79
2023/10/05 11:11:15;;;;;;;15.30;3.17;;;;;;;17.18;100.00;100417.28;5007727;28;20030;-79
2023/10/05 11:13:45;;;;;;;11.50;2.10;;;;;;;16.97;100.00;100528.94;5005691;28;20025;-79
2023/10/05 11:16:11;;;;;;;14.73;2.72;;;;;;;16.94;100.00;100682.25;5005952;28;20061;-78
2023/10/05 11:18:50;;;;;;;10.95;2.35;;;;;;;16.96;100.00;100766.50;5007240;28;20570;-79
2023/10/05 11:21:18;;;;;;;11.73;1.73;;;;;;;16.32;100.00;100686.84;5007435;28;20026;-79
2023/10/05 11:23:48;;;;;;;6.47;2.10;;;;;;;16.37;100.00;100730.19;5008163;28;20546;-79
2023/10/05 11:26:17;;;;;;;13.35;2.50;;;;;;;16.48;100.00;100815.00;5007999;28;20105;-78
2023/10/05 11:28:51;;;;;;;5.90;1.85;;;;;;;16.49;100.00;100665.78;4993079;28;20633;-78
2023/10/05 11:31:23;;;;;;;11.13;2.60;;;;;;;16.24;100.00;100502.00;5007812;28;20041;-78
2023/10/05 11:33:49;;;;;;;13.27;2.45;;;;;;;16.20;100.00;100679.38;5008448;28;20029;-79
2023/10/05 11:36:17;;;;;;;8.68;2.15;;;;;;;16.13;100.00;100673.13;5006882;28;20034;-78
2023/10/05 11:38:43;;;;;;;7.22;1.67;;;;;;;17.17;100.00;100981.31;5007575;28;20037;-78
2023/10/05 11:41:09;;;;;;;;;;;;;;;18.50;100.00;100674.25;5008759;28;20044;-79
2023/10/05 11:43:35;;;;;;;9.43;2.28;;;;;;;19.47;100.00;100283.31;5008080;28;19921;-79
2023/10/05 11:46:24;;;;;;;11.00;2.03;;;;;;;19.38;100.00;99966.94;5008800;28;20022;-78
2023/10/05 11:48:48;;;;;;;5.75;1.58;;;;;;;20.08;100.00;100132.22;4995091;28;20042;-79
2023/10/05 11:51:19;;;;;;;6.18;1.90;;;;;;;20.86;99.04;99707.53;5010357;28;20695;-78
2023/10/05 11:53:46;;;;;;;6.85;1.90;;;;;;;21.32;98.12;99824.69;4979124;28;20038;-79
2023/10/05 11:56:15;;;;;;;5.22;2.05;;;;;;;21.11;92.87;99483.63;5009043;28;20032;-79